sensor_id;sensor_type;location;lat;lon;timestamp;P1;durP1;ratioP1;P2;durP2;ratioP2
15142;SDS011;7672;50.834;6.286;2023-04-08T00:01:42;23.60;;;16.37;;
15142;SDS011;7672;50.834;6.286;2023-04-08T00:04:08;21.63;;;17.03;;
15142;SDS011;7672;50.834;6.286;2023-04-08T00:06:35;22.60;;;17.00;;
15142;SDS011;7672;50.834;6.286;2023-04-08T00:09:02;21.77;;;17.27;;
15142;SDS011;7672;50.834;6.286;2023-04-08T00:11:29;24.43;;;17.03;;
15142;SDS011;7672;50.834;6.286;2023-04-08T00:13:56;21.83;;;17.30;;
15142;SDS011;7672;50.834;6.286;2023-04-08T00:16:23;25.60;;;17.07;;
15142;SDS011;7672;50.834;6.286;2023-04-08T00:18:50;20.93;;;16.23;;
15142;SDS011;7672;50.834;6.286;2023-04-08T00:21:17;23.77;;;16.03;;
15142;SDS011;7672;50.834;6.286;2023-04-08T00:23:46;22.10;;;15.13;;
15142;SDS011;7672;50.834;6.286;2023-04-08T00:26:13;23.00;;;15.07;;
15142;SDS011;7672;50.834;6.286;2023-04-08T00:28:40;23.73;;;14.57;;
15142;SDS011;7672;50.834;6.286;2023-04-08T00:31:08;19.77;;;15.23;;
15142;SDS011;7672;50.834;6.286;2023-04-08T00:33:35;20.90;;;15.47;;
15142;SDS011;7672;50.834;6.286;2023-04-08T00:36:02;22.07;;;16.33;;
15142;SDS011;7672;50.834;6.286;2023-04-08T00:38:29;19.47;;;14.80;;
15142;SDS011;7672;50.834;6.286;2023-04-08T00:40:56;27.27;;;17.03;;
15142;SDS011;7672;50.834;6.286;2023-04-08T00:43:23;22.50;;;16.77;;
15142;SDS011;7672;50.834;6.286;2023-04-08T00:45:50;21.77;;;15.20;;
15142;SDS011;7672;50.834;6.286;2023-04-08T00:48:17;19.80;;;15.10;;
15142;SDS011;7672;50.834;6.286;2023-04-08T00:50:44;19.73;;;14.73;;
15142;SDS011;7672;50.834;6.286;2023-04-08T00:53:14;19.37;;;14.57;;
15142;SDS011;7672;50.834;6.286;2023-04-08T00:55:45;21.47;;;15.23;;
15142;SDS011;7672;50.834;6.286;2023-04-08T00:58:11;25.50;;;15.10;;
15142;SDS011;7672;50.834;6.286;2023-04-08T01:00:41;19.33;;;14.30;;
15142;SDS011;7672;50.834;6.286;2023-04-08T01:03:24;21.43;;;13.87;;
15142;SDS011;7672;50.834;6.286;2023-04-08T01:06:12;22.60;;;13.10;;
15142;SDS011;7672;50.834;6.286;2023-04-08T01:08:46;21.03;;;13.00;;
15142;SDS011;7672;50.834;6.286;2023-04-08T01:11:16;25.73;;;13.33;;
15142;SDS011;7672;50.834;6.286;2023-04-08T01:13:45;22.27;;;13.40;;
15142;SDS011;7672;50.834;6.286;2023-04-08T01:16:16;18.77;;;13.47;;
15142;SDS011;7672;50.834;6.286;2023-04-08T01:18:44;21.00;;;13.63;;
15142;SDS011;7672;50.834;6.286;2023-04-08T01:21:14;21.90;;;13.67;;
15142;SDS011;7672;50.834;6.286;2023-04-08T01:23:58;23.20;;;14.20;;
15142;SDS011;7672;50.834;6.286;2023-04-08T01:26:36;26.93;;;13.83;;
15142;SDS011;7672;50.834;6.286;2023-04-08T01:29:03;18.97;;;13.00;;
15142;SDS011;7672;50.834;6.286;2023-04-08T01:31:32;22.50;;;13.73;;
15142;SDS011;7672;50.834;6.286;2023-04-08T01:34:03;18.03;;;12.77;;
15142;SDS011;7672;50.834;6.286;2023-04-08T01:36:31;18.83;;;13.13;;
15142;SDS011;7672;50.834;6.286;2023-04-08T01:39:02;19.80;;;12.07;;
15142;SDS011;7672;50.834;6.286;2023-04-08T01:41:33;18.20;;;12.77;;
15142;SDS011;7672;50.834;6.286;2023-04-08T01:44:03;21.17;;;12.50;;
15142;SDS011;7672;50.834;6.286;2023-04-08T01:46:30;27.77;;;13.53;;
15142;SDS011;7672;50.834;6.286;2023-04-08T01:48:59;18.03;;;12.80;;
15142;SDS011;7672;50.834;6.286;2023-04-08T01:51:26;24.93;;;13.90;;
15142;SDS011;7672;50.834;6.286;2023-04-08T01:53:56;17.97;;;13.83;;
15142;SDS011;7672;50.834;6.286;2023-04-08T01:56:23;23.90;;;14.07;;
15142;SDS011;7672;50.834;6.286;2023-04-08T01:58:54;17.97;;;13.60;;
15142;SDS011;7672;50.834;6.286;2023-04-08T02:01:26;23.17;;;14.87;;
15142;SDS011;7672;50.834;6.286;2023-04-08T02:03:56;20.90;;;13.10;;
15142;SDS011;7672;50.834;6.286;2023-04-08T02:06:24;16.23;;;11.97;;
15142;SDS011;7672;50.834;6.286;2023-04-08T02:08:54;24.53;;;13.97;;
15142;SDS011;7672;50.834;6.286;2023-04-08T02:11:21;22.13;;;13.73;;
15142;SDS011;7672;50.834;6.286;2023-04-08T02:13:50;21.33;;;12.70;;
15142;SDS011;7672;50.834;6.286;2023-04-08T02:18:57;19.63;;;12.93;;
15142;SDS011;7672;50.834;6.286;2023-04-08T02:21:33;20.97;;;12.67;;
15142;SDS011;7672;50.834;6.286;2023-04-08T02:24:11;17.40;;;13.87;;
15142;SDS011;7672;50.834;6.286;2023-04-08T02:26:39;21.70;;;12.63;;
15142;SDS011;7672;50.834;6.286;2023-04-08T02:29:11;23.13;;;13.77;;
15142;SDS011;7672;50.834;6.286;2023-04-08T02:31:41;21.37;;;13.37;;
15142;SDS011;7672;50.834;6.286;2023-04-08T02:34:09;22.97;;;14.37;;
15142;SDS011;7672;50.834;6.286;2023-04-08T02:36:38;17.53;;;14.03;;
15142;SDS011;7672;50.834;6.286;2023-04-08T02:39:07;18.63;;;12.87;;
15142;SDS011;7672;50.834;6.286;2023-04-08T02:41:34;21.73;;;13.20;;
15142;SDS011;7672;50.834;6.286;2023-04-08T02:44:01;28.93;;;14.40;;
15142;SDS011;7672;50.834;6.286;2023-04-08T02:46:28;20.60;;;13.03;;
15142;SDS011;7672;50.834;6.286;2023-04-08T02:48:55;20.03;;;13.50;;
15142;SDS011;7672;50.834;6.286;2023-04-08T02:51:21;19.93;;;13.13;;
15142;SDS011;7672;50.834;6.286;2023-04-08T02:53:48;26.03;;;13.77;;
15142;SDS011;7672;50.834;6.286;2023-04-08T02:56:15;21.17;;;13.63;;
15142;SDS011;7672;50.834;6.286;2023-04-08T02:58:42;27.97;;;14.47;;
15142;SDS011;7672;50.834;6.286;2023-04-08T03:01:08;17.87;;;13.83;;
15142;SDS011;7672;50.834;6.286;2023-04-08T03:03:35;18.77;;;12.43;;
15142;SDS011;7672;50.834;6.286;2023-04-08T03:06:02;18.47;;;13.43;;
15142;SDS011;7672;50.834;6.286;2023-04-08T03:08:29;25.07;;;14.43;;
15142;SDS011;7672;50.834;6.286;2023-04-08T03:10:56;23.63;;;14.47;;
15142;SDS011;7672;50.834;6.286;2023-04-08T03:13:23;27.97;;;14.87;;
15142;SDS011;7672;50.834;6.286;2023-04-08T03:15:50;20.87;;;13.77;;
15142;SDS011;7672;50.834;6.286;2023-04-08T03:18:16;22.17;;;14.33;;
15142;SDS011;7672;50.834;6.286;2023-04-08T03:20:43;21.87;;;14.20;;
15142;SDS011;7672;50.834;6.286;2023-04-08T03:23:10;23.67;;;15.00;;
15142;SDS011;7672;50.834;6.286;2023-04-08T03:25:37;21.50;;;14.07;;
15142;SDS011;7672;50.834;6.286;2023-04-08T03:28:03;26.57;;;15.30;;
15142;SDS011;7672;50.834;6.286;2023-04-08T03:30:30;21.47;;;15.10;;
15142;SDS011;7672;50.834;6.286;2023-04-08T03:32:57;23.77;;;14.43;;
15142;SDS011;7672;50.834;6.286;2023-04-08T03:35:24;19.07;;;14.47;;
15142;SDS011;7672;50.834;6.286;2023-04-08T03:37:51;25.10;;;14.30;;
15142;SDS011;7672;50.834;6.286;2023-04-08T03:40:18;19.87;;;13.50;;
15142;SDS011;7672;50.834;6.286;2023-04-08T03:42:44;26.47;;;15.57;;
15142;SDS011;7672;50.834;6.286;2023-04-08T03:45:11;25.40;;;14.47;;
15142;SDS011;7672;50.834;6.286;2023-04-08T03:47:38;22.83;;;15.53;;
15142;SDS011;7672;50.834;6.286;2023-04-08T03:50:06;22.33;;;13.30;;
15142;SDS011;7672;50.834;6.286;2023-04-08T03:52:33;27.23;;;15.03;;
15142;SDS011;7672;50.834;6.286;2023-04-08T03:55:00;24.93;;;15.10;;
15142;SDS011;7672;50.834;6.286;2023-04-08T03:57:27;22.40;;;14.40;;
15142;SDS011;7672;50.834;6.286;2023-04-08T03:59:54;26.80;;;15.50;;
15142;SDS011;7672;50.834;6.286;2023-04-08T04:02:20;20.53;;;14.43;;
15142;SDS011;7672;50.834;6.286;2023-04-08T04:04:47;22.87;;;14.57;;
15142;SDS011;7672;50.834;6.286;2023-04-08T04:07:14;24.37;;;14.37;;
15142;SDS011;7672;50.834;6.286;2023-04-08T04:09:41;29.30;;;14.00;;
15142;SDS011;7672;50.834;6.286;2023-04-08T04:12:08;23.60;;;14.23;;
15142;SDS011;7672;50.834;6.286;2023-04-08T04:14:35;32.00;;;15.93;;
15142;SDS011;7672;50.834;6.286;2023-04-08T04:17:01;23.70;;;14.87;;
15142;SDS011;7672;50.834;6.286;2023-04-08T04:19:28;22.27;;;14.70;;
15142;SDS011;7672;50.834;6.286;2023-04-08T04:21:56;21.93;;;15.00;;
15142;SDS011;7672;50.834;6.286;2023-04-08T04:24:23;24.47;;;14.93;;
15142;SDS011;7672;50.834;6.286;2023-04-08T04:26:50;24.77;;;14.47;;
15142;SDS011;7672;50.834;6.286;2023-04-08T04:29:16;21.70;;;14.60;;
15142;SDS011;7672;50.834;6.286;2023-04-08T04:31:43;19.47;;;14.10;;
15142;SDS011;7672;50.834;6.286;2023-04-08T04:34:11;27.77;;;15.20;;
15142;SDS011;7672;50.834;6.286;2023-04-08T04:36:38;20.70;;;14.37;;
15142;SDS011;7672;50.834;6.286;2023-04-08T04:39:04;23.97;;;15.47;;
15142;SDS011;7672;50.834;6.286;2023-04-08T04:41:31;22.13;;;14.10;;
15142;SDS011;7672;50.834;6.286;2023-04-08T04:44:00;26.57;;;14.80;;
15142;SDS011;7672;50.834;6.286;2023-04-08T04:46:27;22.80;;;14.17;;
15142;SDS011;7672;50.834;6.286;2023-04-08T04:48:53;21.27;;;15.07;;
15142;SDS011;7672;50.834;6.286;2023-04-08T04:51:20;19.60;;;13.37;;
15142;SDS011;7672;50.834;6.286;2023-04-08T04:53:47;26.10;;;14.97;;
15142;SDS011;7672;50.834;6.286;2023-04-08T04:56:15;27.20;;;15.53;;
15142;SDS011;7672;50.834;6.286;2023-04-08T04:58:41;27.57;;;15.27;;
15142;SDS011;7672;50.834;6.286;2023-04-08T05:01:08;25.07;;;14.63;;
15142;SDS011;7672;50.834;6.286;2023-04-08T05:03:35;21.73;;;14.13;;
15142;SDS011;7672;50.834;6.286;2023-04-08T05:06:02;22.27;;;14.43;;
15142;SDS011;7672;50.834;6.286;2023-04-08T05:08:29;23.10;;;15.40;;
15142;SDS011;7672;50.834;6.286;2023-04-08T05:10:56;23.80;;;15.20;;
15142;SDS011;7672;50.834;6.286;2023-04-08T05:13:24;31.87;;;15.60;;
15142;SDS011;7672;50.834;6.286;2023-04-08T05:15:51;29.47;;;16.17;;
15142;SDS011;7672;50.834;6.286;2023-04-08T05:18:18;30.90;;;16.87;;
15142;SDS011;7672;50.834;6.286;2023-04-08T05:20:45;27.13;;;17.37;;
15142;SDS011;7672;50.834;6.286;2023-04-08T05:23:11;28.47;;;16.40;;
15142;SDS011;7672;50.834;6.286;2023-04-08T05:25:38;31.40;;;17.17;;
15142;SDS011;7672;50.834;6.286;2023-04-08T05:28:05;28.00;;;16.93;;
15142;SDS011;7672;50.834;6.286;2023-04-08T05:30:32;35.43;;;17.20;;
15142;SDS011;7672;50.834;6.286;2023-04-08T05:32:58;37.93;;;17.70;;
15142;SDS011;7672;50.834;6.286;2023-04-08T05:35:26;37.37;;;18.43;;
15142;SDS011;7672;50.834;6.286;2023-04-08T05:37:54;32.47;;;17.77;;
15142;SDS011;7672;50.834;6.286;2023-04-08T05:40:21;38.73;;;18.30;;
15142;SDS011;7672;50.834;6.286;2023-04-08T05:42:47;36.77;;;17.97;;
15142;SDS011;7672;50.834;6.286;2023-04-08T05:45:14;34.37;;;18.50;;
15142;SDS011;7672;50.834;6.286;2023-04-08T05:47:41;39.73;;;18.43;;
15142;SDS011;7672;50.834;6.286;2023-04-08T05:50:08;39.73;;;19.23;;
15142;SDS011;7672;50.834;6.286;2023-04-08T05:52:36;32.60;;;19.20;;
15142;SDS011;7672;50.834;6.286;2023-04-08T05:55:10;35.63;;;18.57;;
15142;SDS011;7672;50.834;6.286;2023-04-08T05:57:39;34.77;;;19.00;;
15142;SDS011;7672;50.834;6.286;2023-04-08T06:00:06;38.47;;;19.07;;
15142;SDS011;7672;50.834;6.286;2023-04-08T06:02:36;35.67;;;18.87;;
15142;SDS011;7672;50.834;6.286;2023-04-08T06:05:04;36.50;;;19.23;;
15142;SDS011;7672;50.834;6.286;2023-04-08T06:07:31;37.37;;;20.07;;
15142;SDS011;7672;50.834;6.286;2023-04-08T06:09:58;42.30;;;19.63;;
15142;SDS011;7672;50.834;6.286;2023-04-08T06:12:25;42.07;;;20.67;;
15142;SDS011;7672;50.834;6.286;2023-04-08T06:14:52;46.07;;;20.13;;
15142;SDS011;7672;50.834;6.286;2023-04-08T06:17:21;45.33;;;23.27;;
15142;SDS011;7672;50.834;6.286;2023-04-08T06:19:48;41.90;;;22.47;;
15142;SDS011;7672;50.834;6.286;2023-04-08T06:22:15;43.60;;;21.67;;
15142;SDS011;7672;50.834;6.286;2023-04-08T06:24:41;40.47;;;21.60;;
15142;SDS011;7672;50.834;6.286;2023-04-08T06:27:08;42.50;;;22.03;;
15142;SDS011;7672;50.834;6.286;2023-04-08T06:29:35;42.27;;;22.63;;
15142;SDS011;7672;50.834;6.286;2023-04-08T06:32:02;45.20;;;22.23;;
15142;SDS011;7672;50.834;6.286;2023-04-08T06:34:29;40.37;;;21.83;;
15142;SDS011;7672;50.834;6.286;2023-04-08T06:36:55;42.37;;;23.13;;
15142;SDS011;7672;50.834;6.286;2023-04-08T06:39:22;43.27;;;21.70;;
15142;SDS011;7672;50.834;6.286;2023-04-08T06:41:49;46.53;;;23.97;;
15142;SDS011;7672;50.834;6.286;2023-04-08T06:44:17;43.10;;;21.57;;
15142;SDS011;7672;50.834;6.286;2023-04-08T06:46:44;44.77;;;23.13;;
15142;SDS011;7672;50.834;6.286;2023-04-08T06:49:11;45.63;;;23.10;;
15142;SDS011;7672;50.834;6.286;2023-04-08T06:51:38;41.87;;;22.47;;
15142;SDS011;7672;50.834;6.286;2023-04-08T06:54:05;41.17;;;22.67;;
15142;SDS011;7672;50.834;6.286;2023-04-08T06:56:31;39.63;;;23.10;;
15142;SDS011;7672;50.834;6.286;2023-04-08T06:58:58;45.93;;;22.10;;
15142;SDS011;7672;50.834;6.286;2023-04-08T07:01:25;43.20;;;21.50;;
15142;SDS011;7672;50.834;6.286;2023-04-08T07:03:52;40.40;;;20.23;;
15142;SDS011;7672;50.834;6.286;2023-04-08T07:06:18;41.23;;;20.47;;
15142;SDS011;7672;50.834;6.286;2023-04-08T07:08:45;39.23;;;20.73;;
15142;SDS011;7672;50.834;6.286;2023-04-08T07:11:12;38.93;;;20.97;;
15142;SDS011;7672;50.834;6.286;2023-04-08T07:13:39;34.93;;;19.80;;
15142;SDS011;7672;50.834;6.286;2023-04-08T07:16:05;36.03;;;19.53;;
15142;SDS011;7672;50.834;6.286;2023-04-08T07:18:32;41.30;;;20.67;;
15142;SDS011;7672;50.834;6.286;2023-04-08T07:20:59;38.80;;;20.60;;
15142;SDS011;7672;50.834;6.286;2023-04-08T07:23:26;41.63;;;22.03;;
15142;SDS011;7672;50.834;6.286;2023-04-08T07:25:53;32.20;;;18.60;;
15142;SDS011;7672;50.834;6.286;2023-04-08T07:28:20;33.80;;;18.13;;
15142;SDS011;7672;50.834;6.286;2023-04-08T07:30:47;27.43;;;16.87;;
15142;SDS011;7672;50.834;6.286;2023-04-08T07:33:14;26.13;;;16.67;;
15142;SDS011;7672;50.834;6.286;2023-04-08T07:35:41;31.50;;;18.60;;
15142;SDS011;7672;50.834;6.286;2023-04-08T07:38:08;28.40;;;17.90;;
15142;SDS011;7672;50.834;6.286;2023-04-08T07:40:36;34.37;;;18.90;;
15142;SDS011;7672;50.834;6.286;2023-04-08T07:43:03;32.73;;;18.50;;
15142;SDS011;7672;50.834;6.286;2023-04-08T07:45:30;30.23;;;19.47;;
15142;SDS011;7672;50.834;6.286;2023-04-08T07:47:56;32.73;;;20.57;;
15142;SDS011;7672;50.834;6.286;2023-04-08T07:50:23;36.07;;;20.00;;
15142;SDS011;7672;50.834;6.286;2023-04-08T07:52:50;29.53;;;18.70;;
15142;SDS011;7672;50.834;6.286;2023-04-08T07:55:18;38.17;;;20.70;;
15142;SDS011;7672;50.834;6.286;2023-04-08T07:57:45;29.70;;;19.10;;
15142;SDS011;7672;50.834;6.286;2023-04-08T08:00:12;33.83;;;19.73;;
15142;SDS011;7672;50.834;6.286;2023-04-08T08:02:46;35.73;;;19.00;;
15142;SDS011;7672;50.834;6.286;2023-04-08T08:05:14;33.53;;;19.03;;
15142;SDS011;7672;50.834;6.286;2023-04-08T08:07:40;32.53;;;19.93;;
15142;SDS011;7672;50.834;6.286;2023-04-08T08:10:08;32.07;;;18.87;;
15142;SDS011;7672;50.834;6.286;2023-04-08T08:12:36;30.77;;;19.73;;
15142;SDS011;7672;50.834;6.286;2023-04-08T08:15:03;35.33;;;20.10;;
15142;SDS011;7672;50.834;6.286;2023-04-08T08:17:30;27.03;;;18.23;;
15142;SDS011;7672;50.834;6.286;2023-04-08T08:19:59;34.33;;;20.53;;
15142;SDS011;7672;50.834;6.286;2023-04-08T08:22:26;32.93;;;18.43;;
15142;SDS011;7672;50.834;6.286;2023-04-08T08:24:56;32.77;;;19.70;;
15142;SDS011;7672;50.834;6.286;2023-04-08T08:27:23;31.67;;;19.30;;
15142;SDS011;7672;50.834;6.286;2023-04-08T08:29:50;29.03;;;18.27;;
15142;SDS011;7672;50.834;6.286;2023-04-08T08:32:17;33.43;;;21.87;;
15142;SDS011;7672;50.834;6.286;2023-04-08T08:34:44;32.50;;;21.00;;
15142;SDS011;7672;50.834;6.286;2023-04-08T08:37:11;32.17;;;18.93;;
15142;SDS011;7672;50.834;6.286;2023-04-08T08:39:38;31.20;;;24.80;;
15142;SDS011;7672;50.834;6.286;2023-04-08T08:42:04;29.93;;;21.00;;
15142;SDS011;7672;50.834;6.286;2023-04-08T08:44:31;29.60;;;19.53;;
15142;SDS011;7672;50.834;6.286;2023-04-08T08:46:59;32.27;;;23.57;;
15142;SDS011;7672;50.834;6.286;2023-04-08T08:49:26;30.23;;;22.30;;
15142;SDS011;7672;50.834;6.286;2023-04-08T08:51:53;32.53;;;23.77;;
15142;SDS011;7672;50.834;6.286;2023-04-08T08:54:20;34.93;;;25.70;;
15142;SDS011;7672;50.834;6.286;2023-04-08T08:56:48;33.17;;;26.23;;
15142;SDS011;7672;50.834;6.286;2023-04-08T08:59:14;33.67;;;26.40;;
15142;SDS011;7672;50.834;6.286;2023-04-08T09:01:41;33.60;;;26.53;;
15142;SDS011;7672;50.834;6.286;2023-04-08T09:06:46;34.97;;;26.00;;
15142;SDS011;7672;50.834;6.286;2023-04-08T09:09:17;32.43;;;26.13;;
15142;SDS011;7672;50.834;6.286;2023-04-08T09:11:45;31.93;;;25.60;;
15142;SDS011;7672;50.834;6.286;2023-04-08T09:14:22;33.87;;;25.57;;
15142;SDS011;7672;50.834;6.286;2023-04-08T09:16:51;35.00;;;26.63;;
15142;SDS011;7672;50.834;6.286;2023-04-08T09:19:19;31.57;;;26.27;;
15142;SDS011;7672;50.834;6.286;2023-04-08T09:21:50;30.90;;;26.30;;
15142;SDS011;7672;50.834;6.286;2023-04-08T09:24:34;32.07;;;26.40;;
15142;SDS011;7672;50.834;6.286;2023-04-08T09:27:03;30.47;;;25.40;;
15142;SDS011;7672;50.834;6.286;2023-04-08T09:29:31;28.97;;;25.33;;
15142;SDS011;7672;50.834;6.286;2023-04-08T09:32:02;28.33;;;25.33;;
15142;SDS011;7672;50.834;6.286;2023-04-08T09:34:29;26.60;;;23.97;;
15142;SDS011;7672;50.834;6.286;2023-04-08T09:36:59;28.60;;;25.60;;
15142;SDS011;7672;50.834;6.286;2023-04-08T09:39:26;28.77;;;25.90;;
15142;SDS011;7672;50.834;6.286;2023-04-08T09:41:52;30.48;;;27.38;;
15142;SDS011;7672;50.834;6.286;2023-04-08T09:44:27;29.08;;;26.17;;
15142;SDS011;7672;50.834;6.286;2023-04-08T09:47:00;28.45;;;25.65;;
15142;SDS011;7672;50.834;6.286;2023-04-08T09:49:49;28.90;;;26.00;;
15142;SDS011;7672;50.834;6.286;2023-04-08T09:52:23;29.27;;;26.38;;
15142;SDS011;7672;50.834;6.286;2023-04-08T09:55:02;29.00;;;26.10;;
15142;SDS011;7672;50.834;6.286;2023-04-08T10:00:11;28.35;;;25.45;;
15142;SDS011;7672;50.834;6.286;2023-04-08T10:05:14;28.48;;;25.77;;
15142;SDS011;7672;50.834;6.286;2023-04-08T10:07:43;27.73;;;25.02;;
15142;SDS011;7672;50.834;6.286;2023-04-08T10:10:10;27.50;;;24.80;;
15142;SDS011;7672;50.834;6.286;2023-04-08T10:12:38;27.83;;;25.10;;
15142;SDS011;7672;50.834;6.286;2023-04-08T10:15:25;26.95;;;24.25;;
15142;SDS011;7672;50.834;6.286;2023-04-08T10:20:40;25.83;;;23.20;;
15142;SDS011;7672;50.834;6.286;2023-04-08T10:23:08;26.08;;;23.35;;
15142;SDS011;7672;50.834;6.286;2023-04-08T10:25:41;26.33;;;23.52;;
15142;SDS011;7672;50.834;6.286;2023-04-08T10:30:44;26.35;;;23.55;;
15142;SDS011;7672;50.834;6.286;2023-04-08T10:33:22;26.65;;;23.95;;
15142;SDS011;7672;50.834;6.286;2023-04-08T10:38:36;27.50;;;24.80;;
15142;SDS011;7672;50.834;6.286;2023-04-08T10:41:05;25.52;;;23.02;;
15142;SDS011;7672;50.834;6.286;2023-04-08T10:43:32;25.65;;;22.95;;
15142;SDS011;7672;50.834;6.286;2023-04-08T10:46:00;25.80;;;23.20;;
15142;SDS011;7672;50.834;6.286;2023-04-08T10:48:28;25.85;;;23.30;;
15142;SDS011;7672;50.834;6.286;2023-04-08T10:50:56;26.00;;;23.30;;
15142;SDS011;7672;50.834;6.286;2023-04-08T10:53:26;25.45;;;22.85;;
15142;SDS011;7672;50.834;6.286;2023-04-08T10:56:05;25.48;;;22.98;;
15142;SDS011;7672;50.834;6.286;2023-04-08T10:58:34;26.02;;;23.38;;
15142;SDS011;7672;50.834;6.286;2023-04-08T11:01:07;26.73;;;24.23;;
15142;SDS011;7672;50.834;6.286;2023-04-08T11:03:34;26.92;;;24.20;;
15142;SDS011;7672;50.834;6.286;2023-04-08T11:06:03;25.38;;;22.85;;
15142;SDS011;7672;50.834;6.286;2023-04-08T11:08:31;25.17;;;22.52;;
15142;SDS011;7672;50.834;6.286;2023-04-08T11:10:59;25.17;;;22.67;;
15142;SDS011;7672;50.834;6.286;2023-04-08T11:13:27;25.73;;;23.23;;
15142;SDS011;7672;50.834;6.286;2023-04-08T11:15:56;26.10;;;23.50;;
15142;SDS011;7672;50.834;6.286;2023-04-08T11:18:25;27.58;;;24.55;;
15142;SDS011;7672;50.834;6.286;2023-04-08T11:20:53;30.23;;;24.80;;
15142;SDS011;7672;50.834;6.286;2023-04-08T11:23:23;28.80;;;25.52;;
15142;SDS011;7672;50.834;6.286;2023-04-08T11:25:51;29.35;;;26.40;;
15142;SDS011;7672;50.834;6.286;2023-04-08T11:28:18;28.58;;;25.67;;
15142;SDS011;7672;50.834;6.286;2023-04-08T11:30:46;29.13;;;26.10;;
15142;SDS011;7672;50.834;6.286;2023-04-08T11:33:14;28.80;;;25.77;;
15142;SDS011;7672;50.834;6.286;2023-04-08T11:35:42;28.15;;;25.35;;
15142;SDS011;7672;50.834;6.286;2023-04-08T11:38:09;30.20;;;27.02;;
15142;SDS011;7672;50.834;6.286;2023-04-08T11:40:37;30.90;;;27.60;;
15142;SDS011;7672;50.834;6.286;2023-04-08T11:43:10;31.67;;;28.27;;
15142;SDS011;7672;50.834;6.286;2023-04-08T11:45:40;32.87;;;29.00;;
15142;SDS011;7672;50.834;6.286;2023-04-08T11:48:08;34.73;;;31.00;;
15142;SDS011;7672;50.834;6.286;2023-04-08T11:50:37;36.47;;;31.40;;
15142;SDS011;7672;50.834;6.286;2023-04-08T11:53:20;37.73;;;33.63;;
15142;SDS011;7672;50.834;6.286;2023-04-08T11:55:51;33.83;;;30.33;;
15142;SDS011;7672;50.834;6.286;2023-04-08T11:58:18;33.53;;;30.17;;
15142;SDS011;7672;50.834;6.286;2023-04-08T12:00:44;31.63;;;28.30;;
15142;SDS011;7672;50.834;6.286;2023-04-08T12:03:11;29.57;;;26.17;;
15142;SDS011;7672;50.834;6.286;2023-04-08T12:05:39;30.23;;;27.23;;
15142;SDS011;7672;50.834;6.286;2023-04-08T12:08:06;31.63;;;28.33;;
15142;SDS011;7672;50.834;6.286;2023-04-08T12:10:33;30.93;;;27.83;;
15142;SDS011;7672;50.834;6.286;2023-04-08T12:12:59;32.43;;;29.00;;
15142;SDS011;7672;50.834;6.286;2023-04-08T12:15:26;28.67;;;25.73;;
15142;SDS011;7672;50.834;6.286;2023-04-08T12:17:53;28.97;;;26.07;;
15142;SDS011;7672;50.834;6.286;2023-04-08T12:20:20;27.17;;;24.50;;
15142;SDS011;7672;50.834;6.286;2023-04-08T12:22:47;25.97;;;23.37;;
15142;SDS011;7672;50.834;6.286;2023-04-08T12:25:14;31.63;;;28.17;;
15142;SDS011;7672;50.834;6.286;2023-04-08T12:27:41;36.40;;;32.63;;
15142;SDS011;7672;50.834;6.286;2023-04-08T12:30:08;38.47;;;34.57;;
15142;SDS011;7672;50.834;6.286;2023-04-08T12:32:35;37.33;;;33.73;;
15142;SDS011;7672;50.834;6.286;2023-04-08T12:35:03;35.53;;;31.97;;
15142;SDS011;7672;50.834;6.286;2023-04-08T12:37:30;32.00;;;28.80;;
15142;SDS011;7672;50.834;6.286;2023-04-08T12:39:58;31.57;;;28.47;;
15142;SDS011;7672;50.834;6.286;2023-04-08T12:42:25;28.57;;;25.70;;
15142;SDS011;7672;50.834;6.286;2023-04-08T12:44:53;26.63;;;23.97;;
15142;SDS011;7672;50.834;6.286;2023-04-08T12:47:19;25.50;;;23.00;;
15142;SDS011;7672;50.834;6.286;2023-04-08T12:49:48;21.83;;;19.73;;
15142;SDS011;7672;50.834;6.286;2023-04-08T12:52:15;24.03;;;21.53;;
15142;SDS011;7672;50.834;6.286;2023-04-08T12:54:42;22.13;;;19.97;;
15142;SDS011;7672;50.834;6.286;2023-04-08T12:57:10;26.83;;;24.03;;
15142;SDS011;7672;50.834;6.286;2023-04-08T12:59:37;26.93;;;24.13;;
15142;SDS011;7672;50.834;6.286;2023-04-08T13:02:05;30.73;;;27.63;;
15142;SDS011;7672;50.834;6.286;2023-04-08T13:04:33;30.20;;;27.20;;
15142;SDS011;7672;50.834;6.286;2023-04-08T13:07:00;30.63;;;27.40;;
15142;SDS011;7672;50.834;6.286;2023-04-08T13:09:27;30.07;;;26.97;;
15142;SDS011;7672;50.834;6.286;2023-04-08T13:11:55;26.97;;;24.17;;
15142;SDS011;7672;50.834;6.286;2023-04-08T13:14:23;18.80;;;16.40;;
15142;SDS011;7672;50.834;6.286;2023-04-08T13:16:50;17.00;;;15.07;;
15142;SDS011;7672;50.834;6.286;2023-04-08T13:19:17;17.73;;;15.97;;
15142;SDS011;7672;50.834;6.286;2023-04-08T13:21:45;16.03;;;14.47;;
15142;SDS011;7672;50.834;6.286;2023-04-08T13:24:12;16.43;;;14.77;;
15142;SDS011;7672;50.834;6.286;2023-04-08T13:26:38;16.10;;;14.70;;
15142;SDS011;7672;50.834;6.286;2023-04-08T13:29:05;17.00;;;15.13;;
15142;SDS011;7672;50.834;6.286;2023-04-08T13:31:32;15.47;;;14.07;;
15142;SDS011;7672;50.834;6.286;2023-04-08T13:33:59;14.67;;;13.27;;
15142;SDS011;7672;50.834;6.286;2023-04-08T13:36:26;14.90;;;13.43;;
15142;SDS011;7672;50.834;6.286;2023-04-08T13:38:54;14.87;;;13.57;;
15142;SDS011;7672;50.834;6.286;2023-04-08T13:41:21;16.03;;;14.03;;
15142;SDS011;7672;50.834;6.286;2023-04-08T13:43:48;15.80;;;14.30;;
15142;SDS011;7672;50.834;6.286;2023-04-08T13:46:15;15.73;;;14.33;;
15142;SDS011;7672;50.834;6.286;2023-04-08T13:48:43;15.33;;;13.87;;
15142;SDS011;7672;50.834;6.286;2023-04-08T13:51:10;16.00;;;14.50;;
15142;SDS011;7672;50.834;6.286;2023-04-08T13:53:36;15.87;;;14.23;;
15142;SDS011;7672;50.834;6.286;2023-04-08T13:56:03;15.40;;;13.90;;
15142;SDS011;7672;50.834;6.286;2023-04-08T13:58:30;14.37;;;12.97;;
15142;SDS011;7672;50.834;6.286;2023-04-08T14:00:57;14.97;;;13.50;;
15142;SDS011;7672;50.834;6.286;2023-04-08T14:03:24;15.63;;;14.13;;
15142;SDS011;7672;50.834;6.286;2023-04-08T14:05:51;16.37;;;14.20;;
15142;SDS011;7672;50.834;6.286;2023-04-08T14:08:18;14.73;;;13.33;;
15142;SDS011;7672;50.834;6.286;2023-04-08T14:10:50;15.43;;;13.93;;
15142;SDS011;7672;50.834;6.286;2023-04-08T14:13:21;13.30;;;12.00;;
15142;SDS011;7672;50.834;6.286;2023-04-08T14:15:49;14.43;;;12.93;;
15142;SDS011;7672;50.834;6.286;2023-04-08T14:18:17;14.03;;;12.70;;
15142;SDS011;7672;50.834;6.286;2023-04-08T14:20:44;12.77;;;11.57;;
15142;SDS011;7672;50.834;6.286;2023-04-08T14:23:10;14.93;;;13.43;;
15142;SDS011;7672;50.834;6.286;2023-04-08T14:25:38;14.07;;;12.63;;
15142;SDS011;7672;50.834;6.286;2023-04-08T14:28:05;14.80;;;12.53;;
15142;SDS011;7672;50.834;6.286;2023-04-08T14:30:33;13.70;;;12.30;;
15142;SDS011;7672;50.834;6.286;2023-04-08T14:33:01;14.23;;;12.93;;
15142;SDS011;7672;50.834;6.286;2023-04-08T14:35:30;14.87;;;13.40;;
15142;SDS011;7672;50.834;6.286;2023-04-08T14:37:57;14.50;;;13.17;;
15142;SDS011;7672;50.834;6.286;2023-04-08T14:40:24;16.23;;;14.63;;
15142;SDS011;7672;50.834;6.286;2023-04-08T14:42:51;16.87;;;15.13;;
15142;SDS011;7672;50.834;6.286;2023-04-08T14:45:18;18.10;;;16.30;;
15142;SDS011;7672;50.834;6.286;2023-04-08T14:47:45;17.03;;;15.33;;
15142;SDS011;7672;50.834;6.286;2023-04-08T14:50:11;14.70;;;13.30;;
15142;SDS011;7672;50.834;6.286;2023-04-08T14:52:38;15.33;;;13.80;;
15142;SDS011;7672;50.834;6.286;2023-04-08T14:55:05;14.47;;;12.93;;
15142;SDS011;7672;50.834;6.286;2023-04-08T14:57:32;16.17;;;14.47;;